Dana, Kentucky
Current Conditions -  °F | °C
As of 6:55 PM on Saturday 22 Nov 2014 (Local Time) from KPBX Reporting Station
Overcast Overcast  
Wind Chill: 54°   Ceiling: 10000
Heat Index: 54°   Visibility: 10mi
Dew Point: 22°   Wind: 6mph
Humidity: 28%   Direction: 170°S
Pressure: 30.19"   Gusts: NA
Location:  37.56°N, 82.69°W
Report Text: KPBX 222355Z AUTO 17005KT 10SM OVC100 12/M06 A3019 RMK AO2 T01231057 10161 20120
Loading
Personal Weather Stations






























Interactive Weather Map New forecast layout! Learn more

10-Day Weather Forecast

Advertisements
Track Severe Weather on mobile